sensor_id;sensor_type;location;lat;lon;timestamp;pressure;altitude;pressure_sealevel;temperature;humidity
18819;BME280;9537;45.594;9.294;2023-04-21T00:00:36;99316.22;;;12.09;93.99
18819;BME280;9537;45.594;9.294;2023-04-21T00:01:37;99320.69;;;12.08;94.11
18819;BME280;9537;45.594;9.294;2023-04-21T00:02:44;99322.31;;;12.09;93.91
18819;BME280;9537;45.594;9.294;2023-04-21T00:03:46;99328.44;;;12.10;94.20
18819;BME280;9537;45.594;9.294;2023-04-21T00:04:53;99337.22;;;12.10;94.03
18819;BME280;9537;45.594;9.294;2023-04-21T00:06:00;99325.63;;;12.11;93.91
18819;BME280;9537;45.594;9.294;2023-04-21T00:07:07;99331.53;;;12.13;94.14
18819;BME280;9537;45.594;9.294;2023-04-21T00:08:10;99324.78;;;12.11;94.20
18819;BME280;9537;45.594;9.294;2023-04-21T00:09:17;99329.88;;;12.12;93.89
18819;BME280;9537;45.594;9.294;2023-04-21T00:10:19;99321.50;;;12.09;94.17
18819;BME280;9537;45.594;9.294;2023-04-21T00:11:20;99324.00;;;12.10;94.13
18819;BME280;9537;45.594;9.294;2023-04-21T00:12:27;99320.50;;;12.10;93.95
18819;BME280;9537;45.594;9.294;2023-04-21T00:13:33;99324.59;;;12.12;93.72
18819;BME280;9537;45.594;9.294;2023-04-21T00:14:40;99324.78;;;12.11;93.60
18819;BME280;9537;45.594;9.294;2023-04-21T00:15:46;99319.50;;;12.11;93.85
18819;BME280;9537;45.594;9.294;2023-04-21T00:16:53;99319.28;;;12.12;93.74
18819;BME280;9537;45.594;9.294;2023-04-21T00:17:54;99317.47;;;12.13;93.88
18819;BME280;9537;45.594;9.294;2023-04-21T00:19:02;99318.69;;;12.10;93.96
18819;BME280;9537;45.594;9.294;2023-04-21T00:20:11;99322.97;;;12.11;94.19
18819;BME280;9537;45.594;9.294;2023-04-21T00:21:14;99317.03;;;12.09;94.25
18819;BME280;9537;45.594;9.294;2023-04-21T00:22:20;99323.09;;;12.03;94.46
18819;BME280;9537;45.594;9.294;2023-04-21T00:23:24;99320.19;;;11.98;94.95
18819;BME280;9537;45.594;9.294;2023-04-21T00:24:30;99319.81;;;12.01;95.04
18819;BME280;9537;45.594;9.294;2023-04-21T00:25:32;99326.75;;;12.02;94.92
18819;BME280;9537;45.594;9.294;2023-04-21T00:26:33;99332.06;;;12.02;94.73
18819;BME280;9537;45.594;9.294;2023-04-21T00:27:40;99323.91;;;12.04;95.05
18819;BME280;9537;45.594;9.294;2023-04-21T00:28:46;99327.75;;;12.01;95.12
18819;BME280;9537;45.594;9.294;2023-04-21T00:29:53;99321.47;;;12.02;95.27
18819;BME280;9537;45.594;9.294;2023-04-21T00:30:59;99325.75;;;12.03;94.73
18819;BME280;9537;45.594;9.294;2023-04-21T00:32:05;99325.88;;;11.95;95.44
18819;BME280;9537;45.594;9.294;2023-04-21T00:33:13;99326.19;;;11.85;95.95
18819;BME280;9537;45.594;9.294;2023-04-21T00:34:20;99330.09;;;11.89;96.16
18819;BME280;9537;45.594;9.294;2023-04-21T00:35:21;99323.97;;;11.89;95.93
18819;BME280;9537;45.594;9.294;2023-04-21T00:36:23;99329.31;;;11.95;95.54
18819;BME280;9537;45.594;9.294;2023-04-21T00:37:24;99325.88;;;11.95;95.32
18819;BME280;9537;45.594;9.294;2023-04-21T00:38:32;99326.69;;;11.95;94.83
18819;BME280;9537;45.594;9.294;2023-04-21T00:39:38;99325.88;;;11.95;94.83
18819;BME280;9537;45.594;9.294;2023-04-21T00:40:46;99329.91;;;11.91;94.81
18819;BME280;9537;45.594;9.294;2023-04-21T00:41:51;99327.88;;;11.93;94.47
18819;BME280;9537;45.594;9.294;2023-04-21T00:42:58;99326.50;;;11.97;94.66
18819;BME280;9537;45.594;9.294;2023-04-21T00:44:05;99326.50;;;11.97;94.93
18819;BME280;9537;45.594;9.294;2023-04-21T00:45:12;99325.47;;;11.98;94.49
18819;BME280;9537;45.594;9.294;2023-04-21T00:46:20;99323.09;;;12.03;93.94
18819;BME280;9537;45.594;9.294;2023-04-21T00:47:26;99324.25;;;11.94;93.97
18819;BME280;9537;45.594;9.294;2023-04-21T00:48:32;99323.22;;;11.95;94.21
18819;BME280;9537;45.594;9.294;2023-04-21T00:49:40;99322.41;;;11.94;94.57
18819;BME280;9537;45.594;9.294;2023-04-21T00:50:47;99322.41;;;11.94;94.30
18819;BME280;9537;45.594;9.294;2023-04-21T00:51:53;99320.13;;;11.91;94.25
18819;BME280;9537;45.594;9.294;2023-04-21T00:53:01;99312.63;;;11.95;94.42
18819;BME280;9537;45.594;9.294;2023-04-21T00:54:05;99310.38;;;11.92;93.81
18819;BME280;9537;45.594;9.294;2023-04-21T00:55:13;99314.84;;;11.91;94.10
18819;BME280;9537;45.594;9.294;2023-04-21T00:56:19;99317.13;;;11.94;93.84
18819;BME280;9537;45.594;9.294;2023-04-21T00:57:22;99320.78;;;11.93;93.68
18819;BME280;9537;45.594;9.294;2023-04-21T00:58:23;99318.75;;;11.95;93.99
18819;BME280;9537;45.594;9.294;2023-04-21T00:59:30;99321.38;;;11.95;94.07
18819;BME280;9537;45.594;9.294;2023-04-21T01:00:31;99316.09;;;11.95;94.20
18819;BME280;9537;45.594;9.294;2023-04-21T01:01:38;99313.66;;;11.94;94.28
18819;BME280;9537;45.594;9.294;2023-04-21T01:02:41;99318.94;;;11.94;94.30
18819;BME280;9537;45.594;9.294;2023-04-21T01:03:49;99312.00;;;11.93;94.19
18819;BME280;9537;45.594;9.294;2023-04-21T01:04:51;99318.50;;;11.90;94.09
18819;BME280;9537;45.594;9.294;2023-04-21T01:05:58;99318.88;;;11.87;94.31
18819;BME280;9537;45.594;9.294;2023-04-21T01:07:04;99313.91;;;11.84;94.36
18819;BME280;9537;45.594;9.294;2023-04-21T01:08:07;99307.47;;;11.87;94.35
18819;BME280;9537;45.594;9.294;2023-04-21T01:09:14;99312.38;;;11.90;94.09
18819;BME280;9537;45.594;9.294;2023-04-21T01:10:16;99309.72;;;11.90;94.39
18819;BME280;9537;45.594;9.294;2023-04-21T01:11:22;99314.03;;;11.91;94.33
18819;BME280;9537;45.594;9.294;2023-04-21T01:12:29;99315.03;;;11.90;94.21
18819;BME280;9537;45.594;9.294;2023-04-21T01:13:35;99312.00;;;11.93;94.29
18819;BME280;9537;45.594;9.294;2023-04-21T01:14:42;99310.19;;;11.93;94.20
18819;BME280;9537;45.594;9.294;2023-04-21T01:15:48;99310.19;;;11.93;94.19
18819;BME280;9537;45.594;9.294;2023-04-21T01:16:55;99308.34;;;11.94;94.59
18819;BME280;9537;45.594;9.294;2023-04-21T01:17:57;99314.47;;;11.94;94.43
18819;BME280;9537;45.594;9.294;2023-04-21T01:19:04;99312.63;;;11.95;94.57
18819;BME280;9537;45.594;9.294;2023-04-21T01:20:12;99315.28;;;11.95;94.25
18819;BME280;9537;45.594;9.294;2023-04-21T01:21:20;99315.47;;;11.93;93.81
18819;BME280;9537;45.594;9.294;2023-04-21T01:22:27;99320.13;;;11.91;94.35
18819;BME280;9537;45.594;9.294;2023-04-21T01:23:30;99313.66;;;11.94;94.53
18819;BME280;9537;45.594;9.294;2023-04-21T01:24:37;99316.69;;;11.91;94.65
18819;BME280;9537;45.594;9.294;2023-04-21T01:25:39;99319.94;;;11.93;94.72
18819;BME280;9537;45.594;9.294;2023-04-21T01:26:40;99317.50;;;11.91;94.54
18819;BME280;9537;45.594;9.294;2023-04-21T01:27:44;99320.56;;;11.95;94.64
18819;BME280;9537;45.594;9.294;2023-04-21T01:28:50;99314.47;;;11.94;94.49
18819;BME280;9537;45.594;9.294;2023-04-21T01:29:57;99315.28;;;11.95;94.35
18819;BME280;9537;45.594;9.294;2023-04-21T01:31:04;99318.94;;;11.94;94.14
18819;BME280;9537;45.594;9.294;2023-04-21T01:32:14;99314.84;;;11.91;94.40
18819;BME280;9537;45.594;9.294;2023-04-21T01:33:21;99320.56;;;11.95;94.17
18819;BME280;9537;45.594;9.294;2023-04-21T01:34:28;99320.78;;;11.93;94.12
18819;BME280;9537;45.594;9.294;2023-04-21T01:35:34;99323.22;;;11.95;94.03
18819;BME280;9537;45.594;9.294;2023-04-21T01:36:41;99320.13;;;11.91;94.45
18819;BME280;9537;45.594;9.294;2023-04-21T01:37:48;99317.50;;;11.91;94.46
18819;BME280;9537;45.594;9.294;2023-04-21T01:38:50;99319.75;;;11.94;94.78
18819;BME280;9537;45.594;9.294;2023-04-21T01:39:58;99322.41;;;11.94;94.39
18819;BME280;9537;45.594;9.294;2023-04-21T01:41:05;99318.31;;;11.92;94.36
18819;BME280;9537;45.594;9.294;2023-04-21T01:42:07;99322.78;;;11.91;94.99
18819;BME280;9537;45.594;9.294;2023-04-21T01:43:16;99331.16;;;11.95;94.96
18819;BME280;9537;45.594;9.294;2023-04-21T01:44:23;99323.44;;;11.93;94.92
18819;BME280;9537;45.594;9.294;2023-04-21T01:45:31;99314.84;;;11.91;95.09
18819;BME280;9537;45.594;9.294;2023-04-21T01:46:37;99324.25;;;11.94;95.43
18819;BME280;9537;45.594;9.294;2023-04-21T01:47:44;99324.25;;;11.94;95.22
18819;BME280;9537;45.594;9.294;2023-04-21T01:48:50;99323.81;;;11.90;95.02
18819;BME280;9537;45.594;9.294;2023-04-21T01:49:52;99324.63;;;11.91;95.06
18819;BME280;9537;45.594;9.294;2023-04-21T01:50:53;99319.31;;;11.91;94.94
18819;BME280;9537;45.594;9.294;2023-04-21T01:52:00;99317.66;;;11.90;95.04
18819;BME280;9537;45.594;9.294;2023-04-21T01:53:07;99315.03;;;11.90;95.08
18819;BME280;9537;45.594;9.294;2023-04-21T01:54:10;99318.69;;;11.89;95.34
18819;BME280;9537;45.594;9.294;2023-04-21T01:55:16;99318.88;;;11.87;95.30
18819;BME280;9537;45.594;9.294;2023-04-21T01:56:18;99315.03;;;11.90;95.37
18819;BME280;9537;45.594;9.294;2023-04-21T01:57:19;99313.22;;;11.90;95.30
18819;BME280;9537;45.594;9.294;2023-04-21T01:58:26;99316.69;;;11.91;95.67
18819;BME280;9537;45.594;9.294;2023-04-21T01:59:27;99317.28;;;11.93;95.78
18819;BME280;9537;45.594;9.294;2023-04-21T02:00:29;99317.28;;;11.93;95.93
18819;BME280;9537;45.594;9.294;2023-04-21T02:01:30;99308.91;;;11.89;95.38
18819;BME280;9537;45.594;9.294;2023-04-21T02:02:32;99315.22;;;11.88;95.37
18819;BME280;9537;45.594;9.294;2023-04-21T02:03:38;99321.16;;;11.90;95.29
18819;BME280;9537;45.594;9.294;2023-04-21T02:04:46;99320.97;;;11.92;94.93
18819;BME280;9537;45.594;9.294;2023-04-21T02:05:52;99325.22;;;11.93;94.97
18819;BME280;9537;45.594;9.294;2023-04-21T02:06:54;99324.25;;;11.94;94.68
18819;BME280;9537;45.594;9.294;2023-04-21T02:07:55;99327.88;;;11.93;94.42
18819;BME280;9537;45.594;9.294;2023-04-21T02:08:58;99326.06;;;11.93;94.32
18819;BME280;9537;45.594;9.294;2023-04-21T02:10:05;99328.72;;;11.93;94.35
18819;BME280;9537;45.594;9.294;2023-04-21T02:11:12;99331.38;;;11.93;94.69
18819;BME280;9537;45.594;9.294;2023-04-21T02:12:18;99330.53;;;11.93;94.63
18819;BME280;9537;45.594;9.294;2023-04-21T02:13:20;99323.44;;;11.93;94.81
18819;BME280;9537;45.594;9.294;2023-04-21T02:14:21;99325.44;;;11.91;95.02
18819;BME280;9537;45.594;9.294;2023-04-21T02:15:24;99321.97;;;11.91;94.97
18819;BME280;9537;45.594;9.294;2023-04-21T02:16:29;99313.56;;;11.87;95.44
18819;BME280;9537;45.594;9.294;2023-04-21T02:17:36;99310.09;;;11.87;95.79
18819;BME280;9537;45.594;9.294;2023-04-21T02:18:43;99296.88;;;11.87;96.19
18819;BME280;9537;45.594;9.294;2023-04-21T02:19:45;99305.63;;;11.87;96.62
18819;BME280;9537;45.594;9.294;2023-04-21T02:20:52;99307.09;;;11.90;96.60
18819;BME280;9537;45.594;9.294;2023-04-21T02:21:59;99318.31;;;11.92;96.63
18819;BME280;9537;45.594;9.294;2023-04-21T02:23:05;99318.31;;;11.92;96.60
18819;BME280;9537;45.594;9.294;2023-04-21T02:24:13;99320.97;;;11.92;96.17
18819;BME280;9537;45.594;9.294;2023-04-21T02:25:14;99315.66;;;11.92;95.97
18819;BME280;9537;45.594;9.294;2023-04-21T02:26:21;99326.63;;;11.89;95.63
18819;BME280;9537;45.594;9.294;2023-04-21T02:27:23;99322.16;;;11.89;95.37
18819;BME280;9537;45.594;9.294;2023-04-21T02:28:30;99322.78;;;11.91;95.53
18819;BME280;9537;45.594;9.294;2023-04-21T02:29:31;99319.31;;;11.91;95.29
18819;BME280;9537;45.594;9.294;2023-04-21T02:30:38;99318.69;;;11.89;95.59
18819;BME280;9537;45.594;9.294;2023-04-21T02:31:44;99317.66;;;11.90;95.73
18819;BME280;9537;45.594;9.294;2023-04-21T02:32:46;99323.81;;;11.90;96.04
18819;BME280;9537;45.594;9.294;2023-04-21T02:33:47;99324.16;;;11.87;96.40
18819;BME280;9537;45.594;9.294;2023-04-21T02:34:54;99324.78;;;11.89;96.38
18819;BME280;9537;45.594;9.294;2023-04-21T02:35:55;99321.34;;;11.89;96.25
18819;BME280;9537;45.594;9.294;2023-04-21T02:37:02;99319.72;;;11.88;96.43
18819;BME280;9537;45.594;9.294;2023-04-21T02:38:09;99325.59;;;11.90;96.50
18819;BME280;9537;45.594;9.294;2023-04-21T02:39:17;99331.28;;;11.87;96.57
18819;BME280;9537;45.594;9.294;2023-04-21T02:40:18;99327.66;;;11.88;96.37
18819;BME280;9537;45.594;9.294;2023-04-21T02:41:20;99330.28;;;11.88;96.69
18819;BME280;9537;45.594;9.294;2023-04-21T02:42:22;99331.91;;;11.89;96.87
18819;BME280;9537;45.594;9.294;2023-04-21T02:43:25;99336.19;;;11.90;97.24
18819;BME280;9537;45.594;9.294;2023-04-21T02:44:31;99332.72;;;11.89;97.39
18819;BME280;9537;45.594;9.294;2023-04-21T02:45:33;99334.75;;;11.87;97.36
18819;BME280;9537;45.594;9.294;2023-04-21T02:46:34;99335.94;;;11.85;97.68
18819;BME280;9537;45.594;9.294;2023-04-21T02:47:41;99335.75;;;11.86;97.48
18819;BME280;9537;45.594;9.294;2023-04-21T02:48:47;99339.03;;;11.88;97.68
18819;BME280;9537;45.594;9.294;2023-04-21T02:49:49;99340.03;;;11.87;97.73
18819;BME280;9537;45.594;9.294;2023-04-21T02:50:50;99338.22;;;11.88;97.48
18819;BME280;9537;45.594;9.294;2023-04-21T02:51:53;99339.03;;;11.88;97.84
18819;BME280;9537;45.594;9.294;2023-04-21T02:52:59;99341.50;;;11.90;98.12
18819;BME280;9537;45.594;9.294;2023-04-21T02:54:06;99344.13;;;11.90;97.97
18819;BME280;9537;45.594;9.294;2023-04-21T02:55:14;99347.38;;;11.85;98.24
18819;BME280;9537;45.594;9.294;2023-04-21T02:56:21;99345.53;;;11.86;98.57
18819;BME280;9537;45.594;9.294;2023-04-21T02:57:27;99340.03;;;11.87;98.62
18819;BME280;9537;45.594;9.294;2023-04-21T02:58:34;99345.88;;;11.83;98.55
18819;BME280;9537;45.594;9.294;2023-04-21T02:59:40;99343.88;;;11.85;98.64
18819;BME280;9537;45.594;9.294;2023-04-21T03:00:47;99348.69;;;11.81;99.15
18819;BME280;9537;45.594;9.294;2023-04-21T03:01:48;99344.84;;;11.84;98.98
18819;BME280;9537;45.594;9.294;2023-04-21T03:02:55;99349.00;;;11.86;99.00
18819;BME280;9537;45.594;9.294;2023-04-21T03:04:01;99352.19;;;11.82;98.65
18819;BME280;9537;45.594;9.294;2023-04-21T03:05:09;99348.91;;;11.80;98.80
18819;BME280;9537;45.594;9.294;2023-04-21T03:06:15;99349.34;;;11.83;98.83
18819;BME280;9537;45.594;9.294;2023-04-21T03:07:21;99342.88;;;11.86;98.25
18819;BME280;9537;45.594;9.294;2023-04-21T03:08:22;99337.59;;;11.86;98.40
18819;BME280;9537;45.594;9.294;2023-04-21T03:09:29;99343.53;;;11.88;98.26
18819;BME280;9537;45.594;9.294;2023-04-21T03:10:32;99342.50;;;11.89;98.00
18819;BME280;9537;45.594;9.294;2023-04-21T03:11:39;99334.75;;;11.87;98.13
18819;BME280;9537;45.594;9.294;2023-04-21T03:12:45;99340.50;;;11.91;97.77
18819;BME280;9537;45.594;9.294;2023-04-21T03:13:52;99339.31;;;11.93;96.89
18819;BME280;9537;45.594;9.294;2023-04-21T03:14:58;99342.34;;;11.90;96.77
18819;BME280;9537;45.594;9.294;2023-04-21T03:16:00;99338.66;;;11.91;96.75
18819;BME280;9537;45.594;9.294;2023-04-21T03:17:01;99342.56;;;11.95;96.61
18819;BME280;9537;45.594;9.294;2023-04-21T03:18:08;99345.66;;;11.99;95.71
18819;BME280;9537;45.594;9.294;2023-04-21T03:19:09;99346.91;;;12.03;95.47
18819;BME280;9537;45.594;9.294;2023-04-21T03:20:16;99346.75;;;12.05;94.89
18819;BME280;9537;45.594;9.294;2023-04-21T03:21:22;99346.34;;;12.08;94.55
18819;BME280;9537;45.594;9.294;2023-04-21T03:22:24;99348.16;;;12.07;94.38
18819;BME280;9537;45.594;9.294;2023-04-21T03:23:25;99345.50;;;12.07;94.48
18819;BME280;9537;45.594;9.294;2023-04-21T03:24:27;99353.03;;;12.04;94.51
18819;BME280;9537;45.594;9.294;2023-04-21T03:25:36;99348.31;;;11.99;94.47
18819;BME280;9537;45.594;9.294;2023-04-21T03:26:43;99347.28;;;12.00;94.47
18819;BME280;9537;45.594;9.294;2023-04-21T03:27:45;99348.31;;;11.99;94.44
18819;BME280;9537;45.594;9.294;2023-04-21T03:28:47;99351.94;;;11.98;94.32
18819;BME280;9537;45.594;9.294;2023-04-21T03:29:48;99354.81;;;11.97;94.52
18819;BME280;9537;45.594;9.294;2023-04-21T03:30:55;99344.22;;;11.97;94.36
18819;BME280;9537;45.594;9.294;2023-04-21T03:31:56;99355.78;;;11.95;94.56
18819;BME280;9537;45.594;9.294;2023-04-21T03:33:03;99348.06;;;11.94;94.45
18819;BME280;9537;45.594;9.294;2023-04-21T03:34:09;99345.78;;;11.91;94.49
18819;BME280;9537;45.594;9.294;2023-04-21T03:35:16;99358.56;;;11.87;94.94
18819;BME280;9537;45.594;9.294;2023-04-21T03:36:22;99356.75;;;11.88;95.25
18819;BME280;9537;45.594;9.294;2023-04-21T03:37:29;99352.28;;;11.88;95.14
18819;BME280;9537;45.594;9.294;2023-04-21T03:38:35;99343.31;;;11.89;94.51
18819;BME280;9537;45.594;9.294;2023-04-21T03:39:37;99345.59;;;11.92;94.42
18819;BME280;9537;45.594;9.294;2023-04-21T03:40:44;99345.16;;;11.89;94.79
18819;BME280;9537;45.594;9.294;2023-04-21T03:41:46;99342.34;;;11.90;94.83
18819;BME280;9537;45.594;9.294;2023-04-21T03:42:52;99343.75;;;11.93;94.94
18819;BME280;9537;45.594;9.294;2023-04-21T03:43:59;99344.22;;;11.97;94.54
18819;BME280;9537;45.594;9.294;2023-04-21T03:45:07;99339.75;;;11.97;93.97
18819;BME280;9537;45.594;9.294;2023-04-21T03:46:18;99339.75;;;11.97;94.23
18819;BME280;9537;45.594;9.294;2023-04-21T03:47:24;99340.13;;;11.94;94.52
18819;BME280;9537;45.594;9.294;2023-04-21T03:48:26;99338.09;;;11.96;94.49
18819;BME280;9537;45.594;9.294;2023-04-21T03:49:33;99340.13;;;11.94;94.50
18819;BME280;9537;45.594;9.294;2023-04-21T03:50:40;99330.91;;;11.90;94.37
18819;BME280;9537;45.594;9.294;2023-04-21T03:51:46;99348.81;;;11.88;95.18
18819;BME280;9537;45.594;9.294;2023-04-21T03:52:53;99344.13;;;11.90;94.95
18819;BME280;9537;45.594;9.294;2023-04-21T03:53:54;99340.25;;;11.86;94.91
18819;BME280;9537;45.594;9.294;2023-04-21T03:54:56;99343.53;;;11.88;95.36
18819;BME280;9537;45.594;9.294;2023-04-21T03:55:58;99336.41;;;11.88;95.25
18819;BME280;9537;45.594;9.294;2023-04-21T03:57:00;99334.75;;;11.87;95.38
18819;BME280;9537;45.594;9.294;2023-04-21T03:58:06;99334.56;;;11.89;95.45
18819;BME280;9537;45.594;9.294;2023-04-21T03:59:09;99335.81;;;11.93;94.80
18819;BME280;9537;45.594;9.294;2023-04-21T04:00:15;99335.22;;;11.91;95.45
18819;BME280;9537;45.594;9.294;2023-04-21T04:01:22;99337.38;;;11.87;94.57
18819;BME280;9537;45.594;9.294;2023-04-21T04:02:28;99347.97;;;11.87;94.95
18819;BME280;9537;45.594;9.294;2023-04-21T04:03:35;99346.34;;;11.86;94.94
18819;BME280;9537;45.594;9.294;2023-04-21T04:04:41;99357.56;;;11.88;94.42
18819;BME280;9537;45.594;9.294;2023-04-21T04:05:48;99343.53;;;11.88;94.25
18819;BME280;9537;45.594;9.294;2023-04-21T04:06:49;99349.44;;;11.90;94.27
18819;BME280;9537;45.594;9.294;2023-04-21T04:07:56;99346.78;;;11.90;94.44
18819;BME280;9537;45.594;9.294;2023-04-21T04:08:58;99361.03;;;11.89;94.44
18819;BME280;9537;45.594;9.294;2023-04-21T04:10:07;99355.31;;;11.85;94.78
18819;BME280;9537;45.594;9.294;2023-04-21T04:11:10;99354.84;;;11.82;94.97
18819;BME280;9537;45.594;9.294;2023-04-21T04:12:16;99355.81;;;11.81;95.31
18819;BME280;9537;45.594;9.294;2023-04-21T04:13:23;99355.19;;;11.79;95.66
18819;BME280;9537;45.594;9.294;2023-04-21T04:14:31;99354.63;;;11.83;95.58
18819;BME280;9537;45.594;9.294;2023-04-21T04:15:33;99357.28;;;11.83;95.21
18819;BME280;9537;45.594;9.294;2023-04-21T04:16:39;99358.09;;;11.84;95.25
18819;BME280;9537;45.594;9.294;2023-04-21T04:17:46;99354.63;;;11.83;95.56
18819;BME280;9537;45.594;9.294;2023-04-21T04:18:51;99359.94;;;11.83;95.39
18819;BME280;9537;45.594;9.294;2023-04-21T04:19:54;99358.09;;;11.84;95.68
18819;BME280;9537;45.594;9.294;2023-04-21T04:21:04;99367.88;;;11.83;95.85
18819;BME280;9537;45.594;9.294;2023-04-21T04:22:11;99357.28;;;11.83;95.94
18819;BME280;9537;45.594;9.294;2023-04-21T04:23:12;99365.50;;;11.88;95.57
18819;BME280;9537;45.594;9.294;2023-04-21T04:24:19;99357.84;;;11.93;94.17
18819;BME280;9537;45.594;9.294;2023-04-21T04:25:26;99363.28;;;11.92;94.41
18819;BME280;9537;45.594;9.294;2023-04-21T04:26:35;99357.38;;;11.90;94.59
18819;BME280;9537;45.594;9.294;2023-04-21T04:27:43;99363.03;;;11.87;94.71
18819;BME280;9537;45.594;9.294;2023-04-21T04:28:45;99368.53;;;11.85;94.99
18819;BME280;9537;45.594;9.294;2023-04-21T04:29:51;99366.84;;;11.84;95.09
18819;BME280;9537;45.594;9.294;2023-04-21T04:30:53;99366.84;;;11.84;95.37
18819;BME280;9537;45.594;9.294;2023-04-21T04:31:59;99368.69;;;11.84;95.20
18819;BME280;9537;45.594;9.294;2023-04-21T04:33:03;99371.31;;;11.84;94.78
18819;BME280;9537;45.594;9.294;2023-04-21T04:34:10;99361.13;;;11.81;95.22
18819;BME280;9537;45.594;9.294;2023-04-21T04:35:17;99371.06;;;11.79;95.23
18819;BME280;9537;45.594;9.294;2023-04-21T04:36:23;99367.97;;;11.75;95.17
18819;BME280;9537;45.594;9.294;2023-04-21T04:37:32;99375.66;;;11.70;95.47
18819;BME280;9537;45.594;9.294;2023-04-21T04:38:39;99372.81;;;11.71;95.48
18819;BME280;9537;45.594;9.294;2023-04-21T04:39:41;99381.13;;;11.68;95.73
18819;BME280;9537;45.594;9.294;2023-04-21T04:40:42;99385.41;;;11.69;95.85
18819;BME280;9537;45.594;9.294;2023-04-21T04:41:51;99387.25;;;11.69;96.15
18819;BME280;9537;45.594;9.294;2023-04-21T04:42:57;99384.44;;;11.70;96.02
18819;BME280;9537;45.594;9.294;2023-04-21T04:44:02;99388.69;;;11.71;96.37
18819;BME280;9537;45.594;9.294;2023-04-21T04:45:05;99389.72;;;11.70;96.19
18819;BME280;9537;45.594;9.294;2023-04-21T04:46:13;99396.63;;;11.71;96.40
18819;BME280;9537;45.594;9.294;2023-04-21T04:47:20;99399.28;;;11.71;96.41
18819;BME280;9537;45.594;9.294;2023-04-21T04:48:21;99403.56;;;11.72;96.06
18819;BME280;9537;45.594;9.294;2023-04-21T04:49:29;99409.50;;;11.75;95.84
18819;BME280;9537;45.594;9.294;2023-04-21T04:50:35;99414.97;;;11.73;95.84
18819;BME280;9537;45.594;9.294;2023-04-21T04:51:37;99416.19;;;11.70;96.04
18819;BME280;9537;45.594;9.294;2023-04-21T04:52:43;99419.44;;;11.72;96.24
18819;BME280;9537;45.594;9.294;2023-04-21T04:53:51;99420.25;;;11.73;96.41
18819;BME280;9537;45.594;9.294;2023-04-21T04:54:52;99421.25;;;11.72;96.88
18819;BME280;9537;45.594;9.294;2023-04-21T04:55:59;99424.34;;;11.76;97.07
18819;BME280;9537;45.594;9.294;2023-04-21T04:57:02;99428.19;;;11.73;96.76
18819;BME280;9537;45.594;9.294;2023-04-21T04:58:09;99427.84;;;11.76;97.16
18819;BME280;9537;45.594;9.294;2023-04-21T04:59:15;99425.00;;;11.78;96.90
18819;BME280;9537;45.594;9.294;2023-04-21T05:00:18;99431.09;;;11.78;96.75
18819;BME280;9537;45.594;9.294;2023-04-21T05:01:19;99427.19;;;11.74;97.24
18819;BME280;9537;45.594;9.294;2023-04-21T05:02:26;99428.19;;;11.73;97.32
18819;BME280;9537;45.594;9.294;2023-04-21T05:03:28;99420.63;;;11.70;97.34
18819;BME280;9537;45.594;9.294;2023-04-21T05:04:30;99428.56;;;11.70;97.65
18819;BME280;9537;45.594;9.294;2023-04-21T05:05:31;99426.94;;;11.69;97.88
18819;BME280;9537;45.594;9.294;2023-04-21T05:06:38;99433.03;;;11.69;98.01
18819;BME280;9537;45.594;9.294;2023-04-21T05:07:39;99435.69;;;11.69;98.18
18819;BME280;9537;45.594;9.294;2023-04-21T05:08:41;99433.69;;;11.71;97.89
18819;BME280;9537;45.594;9.294;2023-04-21T05:09:47;99434.88;;;11.69;97.54
18819;BME280;9537;45.594;9.294;2023-04-21T05:10:54;99435.31;;;11.72;97.65
18819;BME280;9537;45.594;9.294;2023-04-21T05:12:01;99437.13;;;11.72;97.63
18819;BME280;9537;45.594;9.294;2023-04-21T05:13:08;99432.06;;;11.70;97.23
18819;BME280;9537;45.594;9.294;2023-04-21T05:14:10;99435.94;;;11.75;97.05
18819;BME280;9537;45.594;9.294;2023-04-21T05:15:12;99431.47;;;11.75;96.54
18819;BME280;9537;45.594;9.294;2023-04-21T05:16:13;99427.38;;;11.72;96.62
18819;BME280;9537;45.594;9.294;2023-04-21T05:17:20;99432.13;;;11.77;96.52
18819;BME280;9537;45.594;9.294;2023-04-21T05:18:26;99435.78;;;11.76;95.99
18819;BME280;9537;45.594;9.294;2023-04-21T05:19:28;99434.75;;;11.77;96.40
18819;BME280;9537;45.594;9.294;2023-04-21T05:20:34;99430.28;;;11.78;96.85
18819;BME280;9537;45.594;9.294;2023-04-21T05:21:41;99431.09;;;11.78;96.88
18819;BME280;9537;45.594;9.294;2023-04-21T05:22:42;99434.56;;;11.79;97.50
18819;BME280;9537;45.594;9.294;2023-04-21T05:23:49;99439.69;;;11.80;97.69
18819;BME280;9537;45.594;9.294;2023-04-21T05:24:55;99426.28;;;11.82;97.58
18819;BME280;9537;45.594;9.294;2023-04-21T05:25:57;99427.28;;;11.81;97.80
18819;BME280;9537;45.594;9.294;2023-04-21T05:27:04;99423.25;;;11.85;97.21
18819;BME280;9537;45.594;9.294;2023-04-21T05:28:12;99424.53;;;11.89;96.55
18819;BME280;9537;45.594;9.294;2023-04-21T05:29:18;99428.66;;;11.91;96.13
18819;BME280;9537;45.594;9.294;2023-04-21T05:30:25;99440.09;;;11.99;95.24
18819;BME280;9537;45.594;9.294;2023-04-21T05:31:31;99436.22;;;11.94;94.98
18819;BME280;9537;45.594;9.294;2023-04-21T05:32:39;99431.72;;;11.95;94.58
18819;BME280;9537;45.594;9.294;2023-04-21T05:33:40;99430.47;;;11.91;94.70
18819;BME280;9537;45.594;9.294;2023-04-21T05:34:47;99442.06;;;11.90;94.71
18819;BME280;9537;45.594;9.294;2023-04-21T05:35:48;99441.78;;;11.85;95.21
18819;BME280;9537;45.594;9.294;2023-04-21T05:36:50;99447.97;;;11.92;94.61
18819;BME280;9537;45.594;9.294;2023-04-21T05:37:53;99448.63;;;11.94;94.42
18819;BME280;9537;45.594;9.294;2023-04-21T05:38:59;99439.88;;;11.93;94.79
18819;BME280;9537;45.594;9.294;2023-04-21T05:40:01;99453.47;;;11.90;94.90
18819;BME280;9537;45.594;9.294;2023-04-21T05:41:02;99448.34;;;11.89;94.80
18819;BME280;9537;45.594;9.294;2023-04-21T05:42:11;99450.19;;;11.88;94.54
18819;BME280;9537;45.594;9.294;2023-04-21T05:43:17;99447.72;;;11.87;94.30
18819;BME280;9537;45.594;9.294;2023-04-21T05:44:24;99454.38;;;11.83;95.00
18819;BME280;9537;45.594;9.294;2023-04-21T05:45:25;99453.22;;;11.85;95.04
18819;BME280;9537;45.594;9.294;2023-04-21T05:46:32;99452.03;;;11.88;94.99
18819;BME280;9537;45.594;9.294;2023-04-21T05:47:34;99447.97;;;11.92;94.35
18819;BME280;9537;45.594;9.294;2023-04-21T05:48:42;99445.97;;;11.94;94.07